sensor_id;sensor_type;location;lat;lon;timestamp;P1;durP1;ratioP1;P2;durP2;ratioP2
830;SDS011;397;50.564;7.272;2023-12-14T00:01:46;12.70;;;10.63;;
830;SDS011;397;50.564;7.272;2023-12-14T00:04:15;18.90;;;12.40;;
830;SDS011;397;50.564;7.272;2023-12-14T00:06:42;12.83;;;10.43;;
830;SDS011;397;50.564;7.272;2023-12-14T00:09:09;11.90;;;9.20;;
830;SDS011;397;50.564;7.272;2023-12-14T00:11:39;17.23;;;11.13;;
830;SDS011;397;50.564;7.272;2023-12-14T00:14:06;17.60;;;11.47;;
830;SDS011;397;50.564;7.272;2023-12-14T00:16:34;17.50;;;11.57;;
830;SDS011;397;50.564;7.272;2023-12-14T00:19:01;15.90;;;11.90;;
830;SDS011;397;50.564;7.272;2023-12-14T00:21:28;14.13;;;11.63;;
830;SDS011;397;50.564;7.272;2023-12-14T00:23:56;12.10;;;10.77;;
830;SDS011;397;50.564;7.272;2023-12-14T00:26:23;13.23;;;11.13;;
830;SDS011;397;50.564;7.272;2023-12-14T00:28:50;13.27;;;11.13;;
830;SDS011;397;50.564;7.272;2023-12-14T00:31:17;16.47;;;12.27;;
830;SDS011;397;50.564;7.272;2023-12-14T00:33:45;12.60;;;11.10;;
830;SDS011;397;50.564;7.272;2023-12-14T00:36:18;14.10;;;10.40;;
830;SDS011;397;50.564;7.272;2023-12-14T00:38:45;12.37;;;10.97;;
830;SDS011;397;50.564;7.272;2023-12-14T00:41:13;17.63;;;12.00;;
830;SDS011;397;50.564;7.272;2023-12-14T00:43:40;14.03;;;11.57;;
830;SDS011;397;50.564;7.272;2023-12-14T00:46:07;16.57;;;11.80;;
830;SDS011;397;50.564;7.272;2023-12-14T00:48:35;19.07;;;12.20;;
830;SDS011;397;50.564;7.272;2023-12-14T00:51:03;17.20;;;11.30;;
830;SDS011;397;50.564;7.272;2023-12-14T00:53:30;13.47;;;11.00;;
830;SDS011;397;50.564;7.272;2023-12-14T00:55:57;13.00;;;10.73;;
830;SDS011;397;50.564;7.272;2023-12-14T00:58:25;19.60;;;11.57;;
830;SDS011;397;50.564;7.272;2023-12-14T01:00:52;14.90;;;11.10;;
830;SDS011;397;50.564;7.272;2023-12-14T01:03:20;19.17;;;11.13;;
830;SDS011;397;50.564;7.272;2023-12-14T01:05:47;12.30;;;11.10;;
830;SDS011;397;50.564;7.272;2023-12-14T01:08:15;11.77;;;9.73;;
830;SDS011;397;50.564;7.272;2023-12-14T01:10:42;11.93;;;10.73;;
830;SDS011;397;50.564;7.272;2023-12-14T01:13:09;10.70;;;9.47;;
830;SDS011;397;50.564;7.272;2023-12-14T01:15:36;16.53;;;11.00;;
830;SDS011;397;50.564;7.272;2023-12-14T01:18:04;14.60;;;10.37;;
830;SDS011;397;50.564;7.272;2023-12-14T01:20:31;15.30;;;11.10;;
830;SDS011;397;50.564;7.272;2023-12-14T01:22:58;11.67;;;10.03;;
830;SDS011;397;50.564;7.272;2023-12-14T01:25:26;14.33;;;10.90;;
830;SDS011;397;50.564;7.272;2023-12-14T01:27:53;13.37;;;10.10;;
830;SDS011;397;50.564;7.272;2023-12-14T01:30:20;13.50;;;10.10;;
830;SDS011;397;50.564;7.272;2023-12-14T01:32:47;16.23;;;10.80;;
830;SDS011;397;50.564;7.272;2023-12-14T01:35:15;13.70;;;11.27;;
830;SDS011;397;50.564;7.272;2023-12-14T01:37:42;14.47;;;10.50;;
830;SDS011;397;50.564;7.272;2023-12-14T01:40:09;16.83;;;11.87;;
830;SDS011;397;50.564;7.272;2023-12-14T01:42:37;13.83;;;10.70;;
830;SDS011;397;50.564;7.272;2023-12-14T01:45:04;15.40;;;10.97;;
830;SDS011;397;50.564;7.272;2023-12-14T01:47:33;14.97;;;11.40;;
830;SDS011;397;50.564;7.272;2023-12-14T01:50:00;18.03;;;10.97;;
830;SDS011;397;50.564;7.272;2023-12-14T01:52:27;12.13;;;10.60;;
830;SDS011;397;50.564;7.272;2023-12-14T01:54:55;13.90;;;10.73;;
830;SDS011;397;50.564;7.272;2023-12-14T01:57:24;16.50;;;12.57;;
830;SDS011;397;50.564;7.272;2023-12-14T01:59:51;17.63;;;11.73;;
830;SDS011;397;50.564;7.272;2023-12-14T02:02:18;14.17;;;10.90;;
830;SDS011;397;50.564;7.272;2023-12-14T02:04:46;16.97;;;11.87;;
830;SDS011;397;50.564;7.272;2023-12-14T02:07:13;13.07;;;10.67;;
830;SDS011;397;50.564;7.272;2023-12-14T02:09:40;17.43;;;12.47;;
830;SDS011;397;50.564;7.272;2023-12-14T02:12:07;12.93;;;11.33;;
830;SDS011;397;50.564;7.272;2023-12-14T02:14:35;12.47;;;11.17;;
830;SDS011;397;50.564;7.272;2023-12-14T02:17:02;13.27;;;11.33;;
830;SDS011;397;50.564;7.272;2023-12-14T02:19:29;11.50;;;9.57;;
830;SDS011;397;50.564;7.272;2023-12-14T02:21:56;14.40;;;10.83;;
830;SDS011;397;50.564;7.272;2023-12-14T02:24:24;10.70;;;8.77;;
830;SDS011;397;50.564;7.272;2023-12-14T02:26:51;13.43;;;10.27;;
830;SDS011;397;50.564;7.272;2023-12-14T02:29:18;14.43;;;9.70;;
830;SDS011;397;50.564;7.272;2023-12-14T02:31:46;14.47;;;10.20;;
830;SDS011;397;50.564;7.272;2023-12-14T02:34:14;13.60;;;9.10;;
830;SDS011;397;50.564;7.272;2023-12-14T02:36:41;13.67;;;10.10;;
830;SDS011;397;50.564;7.272;2023-12-14T02:39:08;11.90;;;8.97;;
830;SDS011;397;50.564;7.272;2023-12-14T02:41:36;10.30;;;8.90;;
830;SDS011;397;50.564;7.272;2023-12-14T02:44:03;12.93;;;11.10;;
830;SDS011;397;50.564;7.272;2023-12-14T02:46:30;12.77;;;10.73;;
830;SDS011;397;50.564;7.272;2023-12-14T02:48:57;11.37;;;9.43;;
830;SDS011;397;50.564;7.272;2023-12-14T02:51:25;13.80;;;10.73;;
830;SDS011;397;50.564;7.272;2023-12-14T02:53:52;13.60;;;9.37;;
830;SDS011;397;50.564;7.272;2023-12-14T02:56:19;13.57;;;9.80;;
830;SDS011;397;50.564;7.272;2023-12-14T02:58:46;14.10;;;10.10;;
830;SDS011;397;50.564;7.272;2023-12-14T03:01:15;12.20;;;10.10;;
830;SDS011;397;50.564;7.272;2023-12-14T03:03:44;10.97;;;9.40;;
830;SDS011;397;50.564;7.272;2023-12-14T03:06:12;10.30;;;9.20;;
830;SDS011;397;50.564;7.272;2023-12-14T03:08:39;15.23;;;9.53;;
830;SDS011;397;50.564;7.272;2023-12-14T03:11:06;12.90;;;9.33;;
830;SDS011;397;50.564;7.272;2023-12-14T03:13:34;12.83;;;8.57;;
830;SDS011;397;50.564;7.272;2023-12-14T03:16:01;13.20;;;7.97;;
830;SDS011;397;50.564;7.272;2023-12-14T03:18:28;9.90;;;8.90;;
830;SDS011;397;50.564;7.272;2023-12-14T03:20:55;14.07;;;11.37;;
830;SDS011;397;50.564;7.272;2023-12-14T03:23:23;13.70;;;9.53;;
830;SDS011;397;50.564;7.272;2023-12-14T03:25:50;12.23;;;8.57;;
830;SDS011;397;50.564;7.272;2023-12-14T03:28:17;17.87;;;8.97;;
830;SDS011;397;50.564;7.272;2023-12-14T03:30:44;14.07;;;8.00;;
830;SDS011;397;50.564;7.272;2023-12-14T03:33:12;11.10;;;9.67;;
830;SDS011;397;50.564;7.272;2023-12-14T03:35:39;13.77;;;9.50;;
830;SDS011;397;50.564;7.272;2023-12-14T03:38:08;13.60;;;9.57;;
830;SDS011;397;50.564;7.272;2023-12-14T03:40:35;9.60;;;8.60;;
830;SDS011;397;50.564;7.272;2023-12-14T03:43:02;11.87;;;9.30;;
830;SDS011;397;50.564;7.272;2023-12-14T03:45:30;22.83;;;11.10;;
830;SDS011;397;50.564;7.272;2023-12-14T03:47:57;11.23;;;9.13;;
830;SDS011;397;50.564;7.272;2023-12-14T03:50:25;13.33;;;8.83;;
830;SDS011;397;50.564;7.272;2023-12-14T03:52:52;11.13;;;8.90;;
830;SDS011;397;50.564;7.272;2023-12-14T03:55:19;13.00;;;9.53;;
830;SDS011;397;50.564;7.272;2023-12-14T03:57:46;13.10;;;8.70;;
830;SDS011;397;50.564;7.272;2023-12-14T04:00:14;17.37;;;10.23;;
830;SDS011;397;50.564;7.272;2023-12-14T04:02:41;9.63;;;8.63;;
830;SDS011;397;50.564;7.272;2023-12-14T04:05:09;11.57;;;8.33;;
830;SDS011;397;50.564;7.272;2023-12-14T04:07:36;10.90;;;8.87;;
830;SDS011;397;50.564;7.272;2023-12-14T04:10:10;19.03;;;12.50;;
830;SDS011;397;50.564;7.272;2023-12-14T04:12:38;10.67;;;8.90;;
830;SDS011;397;50.564;7.272;2023-12-14T04:15:05;11.30;;;9.30;;
830;SDS011;397;50.564;7.272;2023-12-14T04:17:33;10.17;;;8.70;;
830;SDS011;397;50.564;7.272;2023-12-14T04:20:00;11.07;;;8.80;;
830;SDS011;397;50.564;7.272;2023-12-14T04:22:28;9.10;;;7.73;;
830;SDS011;397;50.564;7.272;2023-12-14T04:24:56;13.40;;;9.67;;
830;SDS011;397;50.564;7.272;2023-12-14T04:27:23;11.97;;;8.13;;
830;SDS011;397;50.564;7.272;2023-12-14T04:29:52;10.03;;;9.00;;
830;SDS011;397;50.564;7.272;2023-12-14T04:32:19;10.80;;;9.23;;
830;SDS011;397;50.564;7.272;2023-12-14T04:34:47;11.97;;;9.17;;
830;SDS011;397;50.564;7.272;2023-12-14T04:37:14;11.23;;;9.10;;
830;SDS011;397;50.564;7.272;2023-12-14T04:39:41;12.47;;;10.43;;
830;SDS011;397;50.564;7.272;2023-12-14T04:42:08;12.17;;;9.50;;
830;SDS011;397;50.564;7.272;2023-12-14T04:44:35;11.20;;;9.70;;
830;SDS011;397;50.564;7.272;2023-12-14T04:47:03;12.73;;;8.30;;
830;SDS011;397;50.564;7.272;2023-12-14T04:49:30;10.50;;;9.00;;
830;SDS011;397;50.564;7.272;2023-12-14T04:51:57;10.57;;;9.30;;
830;SDS011;397;50.564;7.272;2023-12-14T04:54:24;15.20;;;9.53;;
830;SDS011;397;50.564;7.272;2023-12-14T04:56:52;18.70;;;10.20;;
830;SDS011;397;50.564;7.272;2023-12-14T04:59:19;11.37;;;9.63;;
830;SDS011;397;50.564;7.272;2023-12-14T05:01:46;10.57;;;9.47;;
830;SDS011;397;50.564;7.272;2023-12-14T05:04:13;11.87;;;9.17;;
830;SDS011;397;50.564;7.272;2023-12-14T05:06:41;13.03;;;9.23;;
830;SDS011;397;50.564;7.272;2023-12-14T05:09:08;9.20;;;7.80;;
830;SDS011;397;50.564;7.272;2023-12-14T05:11:39;23.70;;;15.30;;
830;SDS011;397;50.564;7.272;2023-12-14T05:14:06;28.33;;;18.40;;
830;SDS011;397;50.564;7.272;2023-12-14T05:16:33;35.97;;;25.60;;
830;SDS011;397;50.564;7.272;2023-12-14T05:19:01;41.43;;;25.37;;
830;SDS011;397;50.564;7.272;2023-12-14T05:21:28;41.67;;;26.73;;
830;SDS011;397;50.564;7.272;2023-12-14T05:23:55;46.60;;;28.20;;
830;SDS011;397;50.564;7.272;2023-12-14T05:26:23;45.97;;;28.87;;
830;SDS011;397;50.564;7.272;2023-12-14T05:28:50;49.80;;;29.90;;
830;SDS011;397;50.564;7.272;2023-12-14T05:31:17;44.90;;;25.53;;
830;SDS011;397;50.564;7.272;2023-12-14T05:33:44;46.90;;;26.70;;
830;SDS011;397;50.564;7.272;2023-12-14T05:36:12;51.00;;;28.03;;
830;SDS011;397;50.564;7.272;2023-12-14T05:38:39;57.17;;;29.50;;
830;SDS011;397;50.564;7.272;2023-12-14T05:41:06;54.60;;;30.27;;
830;SDS011;397;50.564;7.272;2023-12-14T05:43:34;47.20;;;30.27;;
830;SDS011;397;50.564;7.272;2023-12-14T05:46:02;49.70;;;30.53;;
830;SDS011;397;50.564;7.272;2023-12-14T05:48:30;49.63;;;30.50;;
830;SDS011;397;50.564;7.272;2023-12-14T05:50:57;53.10;;;32.57;;
830;SDS011;397;50.564;7.272;2023-12-14T05:53:24;49.23;;;29.97;;
830;SDS011;397;50.564;7.272;2023-12-14T05:55:51;48.33;;;30.17;;
830;SDS011;397;50.564;7.272;2023-12-14T05:58:19;52.10;;;30.20;;
830;SDS011;397;50.564;7.272;2023-12-14T06:00:46;50.20;;;31.87;;
830;SDS011;397;50.564;7.272;2023-12-14T06:03:13;56.63;;;31.97;;
830;SDS011;397;50.564;7.272;2023-12-14T06:05:40;46.60;;;28.87;;
830;SDS011;397;50.564;7.272;2023-12-14T06:08:08;45.70;;;28.23;;
830;SDS011;397;50.564;7.272;2023-12-14T06:10:35;39.57;;;26.33;;
830;SDS011;397;50.564;7.272;2023-12-14T06:13:03;34.50;;;24.40;;
830;SDS011;397;50.564;7.272;2023-12-14T06:15:31;30.93;;;22.37;;
830;SDS011;397;50.564;7.272;2023-12-14T06:17:59;28.30;;;20.57;;
830;SDS011;397;50.564;7.272;2023-12-14T06:20:26;29.17;;;20.20;;
830;SDS011;397;50.564;7.272;2023-12-14T06:22:53;34.10;;;23.23;;
830;SDS011;397;50.564;7.272;2023-12-14T06:25:20;30.27;;;22.47;;
830;SDS011;397;50.564;7.272;2023-12-14T06:27:47;36.10;;;23.87;;
830;SDS011;397;50.564;7.272;2023-12-14T06:30:15;32.00;;;22.80;;
830;SDS011;397;50.564;7.272;2023-12-14T06:32:43;37.97;;;24.67;;
830;SDS011;397;50.564;7.272;2023-12-14T06:35:10;47.00;;;29.37;;
830;SDS011;397;50.564;7.272;2023-12-14T06:37:37;47.73;;;31.00;;
830;SDS011;397;50.564;7.272;2023-12-14T06:40:05;41.67;;;28.67;;
830;SDS011;397;50.564;7.272;2023-12-14T06:42:32;40.43;;;27.77;;
830;SDS011;397;50.564;7.272;2023-12-14T06:45:02;40.17;;;27.33;;
830;SDS011;397;50.564;7.272;2023-12-14T06:47:28;41.37;;;27.80;;
830;SDS011;397;50.564;7.272;2023-12-14T06:49:56;38.20;;;27.70;;
830;SDS011;397;50.564;7.272;2023-12-14T06:52:26;48.27;;;28.57;;
830;SDS011;397;50.564;7.272;2023-12-14T06:54:53;44.70;;;27.13;;
830;SDS011;397;50.564;7.272;2023-12-14T06:57:20;47.13;;;31.80;;
830;SDS011;397;50.564;7.272;2023-12-14T06:59:47;55.10;;;33.07;;
830;SDS011;397;50.564;7.272;2023-12-14T07:02:15;59.37;;;38.73;;
830;SDS011;397;50.564;7.272;2023-12-14T07:04:43;69.13;;;38.73;;
830;SDS011;397;50.564;7.272;2023-12-14T07:07:10;64.20;;;39.90;;
830;SDS011;397;50.564;7.272;2023-12-14T07:09:39;76.60;;;40.80;;
830;SDS011;397;50.564;7.272;2023-12-14T07:12:06;62.27;;;37.63;;
830;SDS011;397;50.564;7.272;2023-12-14T07:14:34;70.73;;;38.67;;
830;SDS011;397;50.564;7.272;2023-12-14T07:17:01;81.87;;;44.83;;
830;SDS011;397;50.564;7.272;2023-12-14T07:19:28;74.03;;;40.60;;
830;SDS011;397;50.564;7.272;2023-12-14T07:21:56;67.10;;;41.07;;
830;SDS011;397;50.564;7.272;2023-12-14T07:24:23;63.40;;;39.00;;
830;SDS011;397;50.564;7.272;2023-12-14T07:26:50;62.93;;;34.93;;
830;SDS011;397;50.564;7.272;2023-12-14T07:29:17;82.10;;;42.57;;
830;SDS011;397;50.564;7.272;2023-12-14T07:31:45;77.53;;;42.57;;
830;SDS011;397;50.564;7.272;2023-12-14T07:34:12;69.57;;;42.07;;
830;SDS011;397;50.564;7.272;2023-12-14T07:36:39;74.80;;;41.07;;
830;SDS011;397;50.564;7.272;2023-12-14T07:39:06;66.43;;;39.67;;
830;SDS011;397;50.564;7.272;2023-12-14T07:41:35;73.90;;;39.27;;
830;SDS011;397;50.564;7.272;2023-12-14T07:44:02;68.37;;;38.60;;
830;SDS011;397;50.564;7.272;2023-12-14T07:46:30;62.67;;;40.43;;
830;SDS011;397;50.564;7.272;2023-12-14T07:48:58;69.27;;;38.53;;
830;SDS011;397;50.564;7.272;2023-12-14T07:51:25;70.57;;;42.63;;
830;SDS011;397;50.564;7.272;2023-12-14T07:53:52;65.53;;;39.30;;
830;SDS011;397;50.564;7.272;2023-12-14T07:56:19;64.70;;;37.30;;
830;SDS011;397;50.564;7.272;2023-12-14T07:58:48;59.23;;;36.10;;
830;SDS011;397;50.564;7.272;2023-12-14T08:01:16;57.27;;;33.97;;
830;SDS011;397;50.564;7.272;2023-12-14T08:03:43;60.63;;;36.23;;
830;SDS011;397;50.564;7.272;2023-12-14T08:06:10;63.27;;;33.50;;
830;SDS011;397;50.564;7.272;2023-12-14T08:08:37;59.57;;;33.80;;
830;SDS011;397;50.564;7.272;2023-12-14T08:11:05;57.93;;;32.27;;
830;SDS011;397;50.564;7.272;2023-12-14T08:13:32;55.33;;;31.70;;
830;SDS011;397;50.564;7.272;2023-12-14T08:15:59;52.30;;;31.70;;
830;SDS011;397;50.564;7.272;2023-12-14T08:18:26;54.37;;;30.73;;
830;SDS011;397;50.564;7.272;2023-12-14T08:20:54;52.43;;;30.30;;
830;SDS011;397;50.564;7.272;2023-12-14T08:23:21;54.37;;;32.00;;
830;SDS011;397;50.564;7.272;2023-12-14T08:25:49;48.30;;;27.97;;
830;SDS011;397;50.564;7.272;2023-12-14T08:28:16;37.37;;;24.97;;
830;SDS011;397;50.564;7.272;2023-12-14T08:30:44;43.20;;;24.40;;
830;SDS011;397;50.564;7.272;2023-12-14T08:33:11;42.43;;;24.30;;
830;SDS011;397;50.564;7.272;2023-12-14T08:35:38;33.77;;;21.93;;
830;SDS011;397;50.564;7.272;2023-12-14T08:38:05;36.33;;;21.73;;
830;SDS011;397;50.564;7.272;2023-12-14T08:40:33;39.00;;;19.70;;
830;SDS011;397;50.564;7.272;2023-12-14T08:43:00;34.30;;;20.63;;
830;SDS011;397;50.564;7.272;2023-12-14T08:45:29;34.17;;;21.97;;
830;SDS011;397;50.564;7.272;2023-12-14T08:47:56;34.37;;;20.03;;
830;SDS011;397;50.564;7.272;2023-12-14T08:50:23;32.90;;;18.17;;
830;SDS011;397;50.564;7.272;2023-12-14T08:52:52;27.10;;;17.10;;
830;SDS011;397;50.564;7.272;2023-12-14T08:55:19;28.80;;;17.57;;
830;SDS011;397;50.564;7.272;2023-12-14T08:57:48;29.80;;;18.40;;
830;SDS011;397;50.564;7.272;2023-12-14T09:00:15;35.30;;;17.83;;
830;SDS011;397;50.564;7.272;2023-12-14T09:02:44;34.60;;;19.80;;
830;SDS011;397;50.564;7.272;2023-12-14T09:05:12;33.00;;;19.37;;
830;SDS011;397;50.564;7.272;2023-12-14T09:07:40;36.90;;;23.17;;
830;SDS011;397;50.564;7.272;2023-12-14T09:10:08;35.97;;;22.07;;
830;SDS011;397;50.564;7.272;2023-12-14T09:12:36;32.53;;;19.27;;
830;SDS011;397;50.564;7.272;2023-12-14T09:15:04;30.47;;;20.20;;
830;SDS011;397;50.564;7.272;2023-12-14T09:17:32;32.83;;;19.37;;
830;SDS011;397;50.564;7.272;2023-12-14T09:20:00;30.00;;;17.40;;
830;SDS011;397;50.564;7.272;2023-12-14T09:22:27;32.83;;;17.40;;
830;SDS011;397;50.564;7.272;2023-12-14T09:24:54;28.67;;;16.80;;
830;SDS011;397;50.564;7.272;2023-12-14T09:27:21;29.43;;;18.17;;
830;SDS011;397;50.564;7.272;2023-12-14T09:29:49;33.20;;;17.27;;
830;SDS011;397;50.564;7.272;2023-12-14T09:32:16;26.40;;;15.57;;
830;SDS011;397;50.564;7.272;2023-12-14T09:34:44;26.30;;;15.90;;
830;SDS011;397;50.564;7.272;2023-12-14T09:37:11;28.03;;;15.13;;
830;SDS011;397;50.564;7.272;2023-12-14T09:39:40;25.70;;;15.80;;
830;SDS011;397;50.564;7.272;2023-12-14T09:42:07;28.93;;;15.40;;
830;SDS011;397;50.564;7.272;2023-12-14T09:44:35;28.43;;;16.20;;
830;SDS011;397;50.564;7.272;2023-12-14T09:47:02;21.70;;;14.50;;
830;SDS011;397;50.564;7.272;2023-12-14T09:49:30;25.13;;;14.47;;
830;SDS011;397;50.564;7.272;2023-12-14T09:51:57;25.43;;;14.50;;
830;SDS011;397;50.564;7.272;2023-12-14T09:54:27;26.03;;;15.23;;
830;SDS011;397;50.564;7.272;2023-12-14T09:56:54;28.27;;;15.20;;
830;SDS011;397;50.564;7.272;2023-12-14T09:59:22;22.30;;;14.03;;
830;SDS011;397;50.564;7.272;2023-12-14T10:01:49;25.20;;;14.47;;
830;SDS011;397;50.564;7.272;2023-12-14T10:04:17;27.23;;;14.23;;
830;SDS011;397;50.564;7.272;2023-12-14T10:06:45;25.27;;;14.40;;
830;SDS011;397;50.564;7.272;2023-12-14T10:09:13;26.27;;;15.33;;
830;SDS011;397;50.564;7.272;2023-12-14T10:11:42;33.90;;;18.73;;
830;SDS011;397;50.564;7.272;2023-12-14T10:14:19;27.93;;;15.47;;
830;SDS011;397;50.564;7.272;2023-12-14T10:16:38;26.00;;;15.40;;
830;SDS011;397;50.564;7.272;2023-12-14T10:19:05;21.27;;;11.50;;
830;SDS011;397;50.564;7.272;2023-12-14T10:21:33;27.40;;;13.40;;
830;SDS011;397;50.564;7.272;2023-12-14T10:24:02;20.20;;;12.13;;
830;SDS011;397;50.564;7.272;2023-12-14T10:26:29;19.97;;;11.10;;
830;SDS011;397;50.564;7.272;2023-12-14T10:28:58;21.20;;;12.30;;
830;SDS011;397;50.564;7.272;2023-12-14T10:31:25;13.87;;;9.47;;
830;SDS011;397;50.564;7.272;2023-12-14T10:33:53;12.40;;;8.83;;
830;SDS011;397;50.564;7.272;2023-12-14T10:36:22;14.37;;;9.77;;
830;SDS011;397;50.564;7.272;2023-12-14T10:38:53;17.83;;;9.07;;
830;SDS011;397;50.564;7.272;2023-12-14T10:41:21;16.00;;;9.07;;
830;SDS011;397;50.564;7.272;2023-12-14T10:43:49;13.13;;;9.03;;
830;SDS011;397;50.564;7.272;2023-12-14T10:46:17;15.47;;;10.20;;
830;SDS011;397;50.564;7.272;2023-12-14T10:48:45;14.20;;;8.93;;
830;SDS011;397;50.564;7.272;2023-12-14T10:51:14;13.07;;;8.57;;
830;SDS011;397;50.564;7.272;2023-12-14T10:53:41;15.37;;;9.53;;
830;SDS011;397;50.564;7.272;2023-12-14T10:56:16;13.17;;;7.60;;
830;SDS011;397;50.564;7.272;2023-12-14T10:58:50;15.83;;;9.60;;
830;SDS011;397;50.564;7.272;2023-12-14T11:01:15;16.13;;;8.90;;
830;SDS011;397;50.564;7.272;2023-12-14T11:03:43;14.67;;;10.00;;
830;SDS011;397;50.564;7.272;2023-12-14T11:06:20;15.70;;;10.23;;
830;SDS011;397;50.564;7.272;2023-12-14T11:08:48;12.93;;;7.67;;
830;SDS011;397;50.564;7.272;2023-12-14T11:11:17;11.67;;;8.30;;
830;SDS011;397;50.564;7.272;2023-12-14T11:13:50;13.23;;;9.50;;
830;SDS011;397;50.564;7.272;2023-12-14T11:16:21;12.10;;;9.17;;
830;SDS011;397;50.564;7.272;2023-12-14T11:18:58;15.07;;;9.00;;
830;SDS011;397;50.564;7.272;2023-12-14T11:21:19;14.93;;;8.87;;
830;SDS011;397;50.564;7.272;2023-12-14T11:23:49;13.20;;;9.37;;
830;SDS011;397;50.564;7.272;2023-12-14T11:26:22;16.50;;;10.73;;
830;SDS011;397;50.564;7.272;2023-12-14T11:28:51;14.70;;;9.40;;
830;SDS011;397;50.564;7.272;2023-12-14T11:31:19;14.37;;;10.50;;
830;SDS011;397;50.564;7.272;2023-12-14T11:33:47;15.67;;;10.60;;
830;SDS011;397;50.564;7.272;2023-12-14T11:36:14;15.37;;;10.47;;
830;SDS011;397;50.564;7.272;2023-12-14T11:38:42;19.80;;;13.03;;
830;SDS011;397;50.564;7.272;2023-12-14T11:41:10;16.20;;;11.90;;
830;SDS011;397;50.564;7.272;2023-12-14T11:43:40;18.67;;;11.70;;
830;SDS011;397;50.564;7.272;2023-12-14T11:46:08;13.73;;;11.87;;
830;SDS011;397;50.564;7.272;2023-12-14T11:48:35;14.43;;;10.80;;
830;SDS011;397;50.564;7.272;2023-12-14T11:51:03;17.53;;;9.63;;
830;SDS011;397;50.564;7.272;2023-12-14T11:53:31;16.47;;;11.27;;
830;SDS011;397;50.564;7.272;2023-12-14T11:56:00;21.07;;;13.40;;
830;SDS011;397;50.564;7.272;2023-12-14T11:58:28;20.13;;;12.50;;
830;SDS011;397;50.564;7.272;2023-12-14T12:01:09;19.50;;;12.80;;
830;SDS011;397;50.564;7.272;2023-12-14T12:03:26;19.43;;;11.97;;
830;SDS011;397;50.564;7.272;2023-12-14T12:05:55;17.70;;;12.87;;
830;SDS011;397;50.564;7.272;2023-12-14T12:08:22;18.33;;;12.63;;
830;SDS011;397;50.564;7.272;2023-12-14T12:10:50;20.03;;;14.10;;
830;SDS011;397;50.564;7.272;2023-12-14T12:13:18;21.20;;;14.50;;
830;SDS011;397;50.564;7.272;2023-12-14T12:15:46;21.83;;;15.17;;
830;SDS011;397;50.564;7.272;2023-12-14T12:18:15;24.80;;;16.47;;
830;SDS011;397;50.564;7.272;2023-12-14T12:20:43;24.00;;;16.43;;
830;SDS011;397;50.564;7.272;2023-12-14T12:23:10;25.40;;;16.83;;
830;SDS011;397;50.564;7.272;2023-12-14T12:25:37;28.53;;;18.00;;
830;SDS011;397;50.564;7.272;2023-12-14T12:28:04;32.30;;;20.50;;
830;SDS011;397;50.564;7.272;2023-12-14T12:30:32;30.07;;;18.60;;
830;SDS011;397;50.564;7.272;2023-12-14T12:32:59;22.30;;;16.60;;
830;SDS011;397;50.564;7.272;2023-12-14T12:35:26;31.53;;;16.63;;
830;SDS011;397;50.564;7.272;2023-12-14T12:37:55;28.03;;;19.77;;
830;SDS011;397;50.564;7.272;2023-12-14T12:40:23;20.93;;;16.43;;
830;SDS011;397;50.564;7.272;2023-12-14T12:42:52;23.13;;;16.77;;
830;SDS011;397;50.564;7.272;2023-12-14T12:45:19;24.13;;;16.57;;
830;SDS011;397;50.564;7.272;2023-12-14T12:47:51;23.20;;;16.23;;
830;SDS011;397;50.564;7.272;2023-12-14T12:50:18;23.87;;;18.00;;
830;SDS011;397;50.564;7.272;2023-12-14T12:52:46;20.00;;;15.70;;
830;SDS011;397;50.564;7.272;2023-12-14T12:55:15;28.07;;;18.10;;
830;SDS011;397;50.564;7.272;2023-12-14T12:57:42;25.17;;;17.10;;
830;SDS011;397;50.564;7.272;2023-12-14T13:00:10;18.83;;;14.50;;
830;SDS011;397;50.564;7.272;2023-12-14T13:02:40;21.67;;;15.40;;
830;SDS011;397;50.564;7.272;2023-12-14T13:05:08;24.90;;;17.10;;
830;SDS011;397;50.564;7.272;2023-12-14T13:07:36;19.13;;;15.00;;
830;SDS011;397;50.564;7.272;2023-12-14T13:10:04;24.43;;;15.73;;
830;SDS011;397;50.564;7.272;2023-12-14T13:12:33;21.57;;;15.90;;
830;SDS011;397;50.564;7.272;2023-12-14T13:15:00;17.67;;;14.00;;
830;SDS011;397;50.564;7.272;2023-12-14T13:17:28;20.33;;;14.83;;
830;SDS011;397;50.564;7.272;2023-12-14T13:19:55;21.80;;;14.90;;
830;SDS011;397;50.564;7.272;2023-12-14T13:22:22;17.20;;;12.70;;
830;SDS011;397;50.564;7.272;2023-12-14T13:24:49;17.93;;;13.90;;
830;SDS011;397;50.564;7.272;2023-12-14T13:27:17;17.30;;;13.30;;
830;SDS011;397;50.564;7.272;2023-12-14T13:29:44;18.73;;;13.20;;
830;SDS011;397;50.564;7.272;2023-12-14T13:32:11;18.90;;;14.17;;
830;SDS011;397;50.564;7.272;2023-12-14T13:34:38;15.33;;;12.07;;
830;SDS011;397;50.564;7.272;2023-12-14T13:37:06;17.57;;;14.30;;
830;SDS011;397;50.564;7.272;2023-12-14T13:39:35;18.33;;;14.37;;
830;SDS011;397;50.564;7.272;2023-12-14T13:42:04;15.60;;;13.57;;
830;SDS011;397;50.564;7.272;2023-12-14T13:44:32;20.17;;;12.17;;
830;SDS011;397;50.564;7.272;2023-12-14T13:47:01;16.70;;;14.10;;
830;SDS011;397;50.564;7.272;2023-12-14T13:49:28;23.53;;;13.40;;
830;SDS011;397;50.564;7.272;2023-12-14T13:51:56;16.23;;;12.07;;
830;SDS011;397;50.564;7.272;2023-12-14T13:54:23;14.97;;;12.97;;
830;SDS011;397;50.564;7.272;2023-12-14T13:56:50;15.63;;;13.33;;
830;SDS011;397;50.564;7.272;2023-12-14T13:59:19;17.13;;;13.13;;
830;SDS011;397;50.564;7.272;2023-12-14T14:01:46;17.73;;;12.93;;
830;SDS011;397;50.564;7.272;2023-12-14T14:04:16;21.03;;;13.50;;
830;SDS011;397;50.564;7.272;2023-12-14T14:06:43;15.70;;;12.93;;
830;SDS011;397;50.564;7.272;2023-12-14T14:09:10;15.57;;;13.80;;
830;SDS011;397;50.564;7.272;2023-12-14T14:11:38;16.60;;;13.03;;
830;SDS011;397;50.564;7.272;2023-12-14T14:14:07;17.60;;;12.87;;
830;SDS011;397;50.564;7.272;2023-12-14T14:16:34;19.60;;;15.40;;
830;SDS011;397;50.564;7.272;2023-12-14T14:19:01;20.37;;;14.67;;
830;SDS011;397;50.564;7.272;2023-12-14T14:21:28;18.27;;;14.53;;
830;SDS011;397;50.564;7.272;2023-12-14T14:23:56;16.60;;;14.10;;
830;SDS011;397;50.564;7.272;2023-12-14T14:26:23;17.67;;;13.83;;
830;SDS011;397;50.564;7.272;2023-12-14T14:28:51;17.00;;;13.83;;
830;SDS011;397;50.564;7.272;2023-12-14T14:31:19;20.60;;;12.57;;
830;SDS011;397;50.564;7.272;2023-12-14T14:33:46;17.90;;;13.70;;
830;SDS011;397;50.564;7.272;2023-12-14T14:36:14;16.10;;;13.80;;
830;SDS011;397;50.564;7.272;2023-12-14T14:38:41;17.40;;;14.17;;
830;SDS011;397;50.564;7.272;2023-12-14T14:41:09;16.70;;;14.03;;
830;SDS011;397;50.564;7.272;2023-12-14T14:43:36;19.67;;;12.93;;
830;SDS011;397;50.564;7.272;2023-12-14T14:46:04;17.67;;;14.20;;
830;SDS011;397;50.564;7.272;2023-12-14T14:48:31;17.93;;;13.17;;
830;SDS011;397;50.564;7.272;2023-12-14T14:50:58;17.87;;;14.00;;
830;SDS011;397;50.564;7.272;2023-12-14T14:53:26;19.33;;;13.80;;
830;SDS011;397;50.564;7.272;2023-12-14T14:55:54;18.90;;;13.53;;
830;SDS011;397;50.564;7.272;2023-12-14T14:58:22;18.67;;;14.50;;
830;SDS011;397;50.564;7.272;2023-12-14T15:00:49;20.67;;;14.27;;
830;SDS011;397;50.564;7.272;2023-12-14T15:03:16;17.63;;;13.57;;
830;SDS011;397;50.564;7.272;2023-12-14T15:05:45;15.13;;;12.67;;
830;SDS011;397;50.564;7.272;2023-12-14T15:08:13;18.07;;;13.30;;
830;SDS011;397;50.564;7.272;2023-12-14T15:10:40;18.50;;;15.20;;
830;SDS011;397;50.564;7.272;2023-12-14T15:13:07;17.63;;;14.63;;
830;SDS011;397;50.564;7.272;2023-12-14T15:15:35;19.23;;;13.47;;
830;SDS011;397;50.564;7.272;2023-12-14T15:18:04;22.70;;;13.17;;
830;SDS011;397;50.564;7.272;2023-12-14T15:20:31;13.90;;;10.80;;
830;SDS011;397;50.564;7.272;2023-12-14T15:22:59;15.87;;;12.50;;